Αναφορές METAR

 

LGKZ - Kozani (civ/Army, Greece
Distance from station: ΝΔ 41km
Ενημερώθηκε: 16/09/2021 14:50
NOT Current
Μερικώς νεφελώδης
Μερικώς νεφελώδης
 Ανεμος από ΝΝΑ
Ανεμος: ΝΝΑ 11 km/h
Θερμοκρασία: 30°C
Σημείο Δρόσου: 3°C
Υγρασία: 18%
Βαρόμετρο: 1019 hPa
Clouds: Μερικώς νεφελώδης
Visibility: 10 km
Cloud details: Few Clouds 762 m
Μερικώς νεφελώδης 2134 m
2021/09/16 11:50 LGKZ 161150Z 16006KT 9999 FEW025 SCT070 30/03 Q1019
LGTS - Thessaloniki/Mik, Greece
Distance from station: Α 64km
Ενημερώθηκε: 17/09/2021 03:20
Αίθριος
Αίθριος
 Ανεμος από Α
Ανεμος: Α 6 km/h
Θερμοκρασία: 20°C
Σημείο Δρόσου: 15°C
Υγρασία: 73%
Βαρόμετρο: 1016 hPa
Περίληψη: Αίθριος
Visibility: greater than 10 km
2021/09/17 00:20 LGTS 170020Z 08003KT CAVOK 20/15 Q1016 NOSIG
 
LGIO - Ioannina, Greece
Distance from station: ΝΔ 149km
Ενημερώθηκε: 17/09/2021 03:20

 Ανεμος από varies
Ανεμος: varies 2 km/h
Θερμοκρασία: 17°C
Σημείο Δρόσου: 12°C
Υγρασία: 73%
Βαρόμετρο: 1020 hPa
2021/09/17 00:20 LGIO 170020Z AUTO VRB01KT //// // ////// 17/12 Q1020 RE//
LGBL - Nea Anchialos, Greece
Distance from station: ΝΝΑ 154km
Ενημερώθηκε: 17/09/2021 02:50
Αίθριος
Αίθριος
 Ανεμος από calm
Ανεμος: Απνοια
Θερμοκρασία: 18°C
Σημείο Δρόσου: 14°C
Υγρασία: 78%
Βαρόμετρο: 1016 hPa
Περίληψη: Αίθριος
Visibility: greater than 10 km
2021/09/16 23:50 LGBL 162350Z 00000KT CAVOK 18/14 Q1016
 
LGSK - Skiathos Island, Greece
Distance from station: ΝΑ 185km
Ενημερώθηκε: 16/09/2021 18:50
NOT Current
Few Clouds
Few Clouds
 Ανεμος από Ν
Ανεμος: Ν 7 km/h
Θερμοκρασία: 27°C
Heat Index: 28°C
Σημείο Δρόσου: 19°C
Υγρασία: 62%
Βαρόμετρο: 1015 hPa
Clouds: Few Clouds
Visibility: 10 km
Cloud details: Few Clouds 610 m
2021/09/16 15:50 LGSK 161550Z 18004KT 9999 FEW020 27/19 Q1015
LGKV - Kavala/Chrisoupo, Greece
Distance from station: ΑΒΑ 208km
Ενημερώθηκε: 16/09/2021 23:20
NOT Current
Few Clouds
Few Clouds
 Ανεμος από ΒΑ
Ανεμος: ΒΑ 7 km/h
Θερμοκρασία: 21°C
Σημείο Δρόσου: 18°C
Υγρασία: 83%
Βαρόμετρο: 1017 hPa
Clouds: Few Clouds
Visibility: 10 km
Cloud details: Few Clouds 762 m
2021/09/16 20:20 LGKV 162020Z 05004KT 9999 FEW025 21/18 Q1017
 
LGPZ - Preveza/Aktion, Greece
Distance from station: ΝΔ 217km
Ενημερώθηκε: 17/09/2021 02:50

 Ανεμος από varies
Ανεμος: varies 2 km/h
Θερμοκρασία: 20°C
Σημείο Δρόσου: 20°C
Υγρασία: 100%
Βαρόμετρο: 1018 hPa
2021/09/16 23:50 LGPZ 162350Z AUTO VRB01KT //// // ////// 20/20 Q1018 RE//
LGKR - Ioannis Kapodist, Greece
Distance from station: ΔΝΔ 219km
Ενημερώθηκε: 17/09/2021 03:20
Αίθριος
Αίθριος
 Ανεμος από calm
Ανεμος: Απνοια
Θερμοκρασία: 20°C
Σημείο Δρόσου: 17°C
Υγρασία: 83%
Βαρόμετρο: 1017 hPa
Περίληψη: Αίθριος
Visibility: greater than 10 km
2021/09/17 00:20 LGKR 170020Z 00000KT CAVOK 20/17 Q1017 NOSIG
 
LGSY - Skiros, Greece
Distance from station: ΝΑ 261km
Ενημερώθηκε: 16/09/2021 20:50
NOT Current
Αίθριος
Αίθριος
 Ανεμος από calm
Ανεμος: Απνοια
Θερμοκρασία: 21°C
Σημείο Δρόσου: 19°C
Υγρασία: 88%
Βαρόμετρο: 1017 hPa
Περίληψη: Αίθριος
Visibility: greater than 10 km
2021/09/16 17:50 LGSY 161750Z 00000KT CAVOK 21/19 Q1017 BLU
LGLM - Limnos Island Ar, Greece
Distance from station: ΑΝΑ 266km
Ενημερώθηκε: 17/09/2021 02:50
Αίθριος
Αίθριος
 Ανεμος από calm
Ανεμος: Απνοια
Θερμοκρασία: 18°C
Σημείο Δρόσου: 16°C
Υγρασία: 88%
Βαρόμετρο: 1016 hPa
Περίληψη: Αίθριος
Visibility: greater than 10 km
2021/09/16 23:50 LGLM 162350Z 00000KT CAVOK 18/16 Q1016
 
LGRX - Araxos (civ/Afb), Greece
Distance from station: ΝΝΔ 271km
Ενημερώθηκε: 17/09/2021 02:50
Αίθριος
Αίθριος
 Ανεμος από calm
Ανεμος: Απνοια
Θερμοκρασία: 19°C
Σημείο Δρόσου: 18°C
Υγρασία: 94%
Βαρόμετρο: 1018 hPa
Περίληψη: Αίθριος
Visibility: greater than 10 km
2021/09/16 23:50 LGRX 162350Z 00000KT CAVOK 19/18 Q1018
LGEL - Elefsis (hel-Afb, Greece
Distance from station: ΝΝΑ 297km
Ενημερώθηκε: 17/09/2021 03:20

 Ανεμος από varies
Ανεμος: varies 6 km/h
Θερμοκρασία: 21°C
Σημείο Δρόσου: 13°C
Υγρασία: 60%
Βαρόμετρο: 1016 hPa
2021/09/17 00:20 LGEL 170020Z AUTO VRB03KT //// // ////// 21/13 Q1016 RE//
 
LGAD - Andravida (civ/A, Greece
Distance from station: ΝΝΔ 301km
Ενημερώθηκε: 17/09/2021 03:20
Αίθριος
Αίθριος
 Ανεμος από calm
Ανεμος: Απνοια
Θερμοκρασία: 19°C
Σημείο Δρόσου: 17°C
Υγρασία: 88%
Βαρόμετρο: 1018 hPa
Περίληψη: Αίθριος
Visibility: greater than 10 km
2021/09/17 00:20 LGAD 170020Z 00000KT CAVOK 19/17 Q1018
LGKF - Kefallinia, Greece
Distance from station: ΝΝΔ 305km
Ενημερώθηκε: 16/09/2021 22:50
NOT Current
Αίθριος
Αίθριος
 Ανεμος από calm
Ανεμος: Απνοια
Θερμοκρασία: 24°C
Σημείο Δρόσου: 19°C
Υγρασία: 74%
Βαρόμετρο: 1018 hPa
Περίληψη: Αίθριος
Visibility: greater than 10 km
2021/09/16 19:50 LGKF 161950Z 00000KT CAVOK 24/19 Q1018